Terminal Aerodrome Forecast
Issued by NWS

Home | Current Version | Previous Version | Text Only | Print | Product List | Glossary On
Versions: 1 2 3 4 5 6 7 8 9 10 11 12 13 14 15
302
FTUS44 KLZK 110856 AAB
TAFHOT
TAF AMD
KHOT 110856Z 1109/1206 15008KT P6SM OVC050 WS020/20040KT
     FM111200 16007KT P6SM OVC025 WS020/20040KT
     FM111600 17009KT P6SM VCSH OVC015
     FM120200 23003KT 5SM BR VCSH OVC008=

USA.gov is the U.S. government's official web portal to all federal, state and local government web resources and services.